sensor_id;sensor_type;location;lat;lon;timestamp;P1;durP1;ratioP1;P2;durP2;ratioP2
17496;SDS011;62150;43.582;1.456;2023-04-25T04:31:42;1.17;;;1.17;;
17496;SDS011;62150;43.582;1.456;2023-04-25T04:34:10;1.10;;;1.10;;
17496;SDS011;62150;43.582;1.456;2023-04-25T04:36:38;1.50;;;1.40;;
17496;SDS011;62150;43.582;1.456;2023-04-25T04:39:06;1.10;;;1.10;;
17496;SDS011;62150;43.582;1.456;2023-04-25T04:41:34;1.13;;;1.03;;
17496;SDS011;62150;43.582;1.456;2023-04-25T04:44:01;1.00;;;1.00;;
17496;SDS011;62150;43.582;1.456;2023-04-25T04:46:31;1.27;;;1.17;;
17496;SDS011;62150;43.582;1.456;2023-04-25T04:49:04;1.30;;;1.20;;
17496;SDS011;62150;43.582;1.456;2023-04-25T04:51:31;3.03;;;1.10;;
17496;SDS011;62150;43.582;1.456;2023-04-25T04:53:59;1.30;;;1.17;;
17496;SDS011;62150;43.582;1.456;2023-04-25T04:56:27;1.57;;;1.10;;
17496;SDS011;62150;43.582;1.456;2023-04-25T04:58:56;1.00;;;1.00;;
17496;SDS011;62150;43.582;1.456;2023-04-25T05:01:23;2.07;;;1.23;;
17496;SDS011;62150;43.582;1.456;2023-04-25T05:03:52;1.83;;;1.27;;
17496;SDS011;62150;43.582;1.456;2023-04-25T05:06:21;1.33;;;1.27;;
17496;SDS011;62150;43.582;1.456;2023-04-25T05:08:48;1.80;;;1.17;;
17496;SDS011;62150;43.582;1.456;2023-04-25T05:11:16;1.30;;;1.20;;
17496;SDS011;62150;43.582;1.456;2023-04-25T05:13:43;1.03;;;1.03;;
17496;SDS011;62150;43.582;1.456;2023-04-25T05:16:11;1.30;;;1.20;;
17496;SDS011;62150;43.582;1.456;2023-04-25T05:18:38;1.43;;;1.10;;
17496;SDS011;62150;43.582;1.456;2023-04-25T05:21:06;1.40;;;1.30;;
17496;SDS011;62150;43.582;1.456;2023-04-25T05:23:35;1.40;;;1.30;;
17496;SDS011;62150;43.582;1.456;2023-04-25T05:26:02;1.40;;;1.30;;
17496;SDS011;62150;43.582;1.456;2023-04-25T05:28:30;1.30;;;1.20;;
17496;SDS011;62150;43.582;1.456;2023-04-25T05:30:58;1.73;;;1.13;;
17496;SDS011;62150;43.582;1.456;2023-04-25T05:33:25;1.50;;;1.30;;
17496;SDS011;62150;43.582;1.456;2023-04-25T05:35:53;1.43;;;1.30;;
17496;SDS011;62150;43.582;1.456;2023-04-25T05:38:20;1.70;;;1.23;;
17496;SDS011;62150;43.582;1.456;2023-04-25T05:40:49;2.27;;;1.30;;
17496;SDS011;62150;43.582;1.456;2023-04-25T05:43:17;1.30;;;1.20;;
17496;SDS011;62150;43.582;1.456;2023-04-25T05:45:44;1.40;;;1.30;;
17496;SDS011;62150;43.582;1.456;2023-04-25T05:48:12;1.63;;;1.13;;
17496;SDS011;62150;43.582;1.456;2023-04-25T05:50:39;1.77;;;1.20;;
17496;SDS011;62150;43.582;1.456;2023-04-25T05:53:07;1.50;;;1.40;;
17496;SDS011;62150;43.582;1.456;2023-04-25T05:55:35;2.57;;;1.30;;
17496;SDS011;62150;43.582;1.456;2023-04-25T05:58:04;1.43;;;1.27;;
17496;SDS011;62150;43.582;1.456;2023-04-25T06:00:32;2.47;;;1.30;;
17496;SDS011;62150;43.582;1.456;2023-04-25T06:03:00;1.40;;;1.30;;
17496;SDS011;62150;43.582;1.456;2023-04-25T06:05:28;2.00;;;1.20;;
17496;SDS011;62150;43.582;1.456;2023-04-25T06:07:55;2.17;;;1.43;;
17496;SDS011;62150;43.582;1.456;2023-04-25T06:10:23;1.90;;;1.30;;
17496;SDS011;62150;43.582;1.456;2023-04-25T06:12:51;1.30;;;1.20;;
17496;SDS011;62150;43.582;1.456;2023-04-25T06:15:19;3.23;;;1.40;;
17496;SDS011;62150;43.582;1.456;2023-04-25T06:17:47;1.43;;;1.30;;
17496;SDS011;62150;43.582;1.456;2023-04-25T06:20:14;1.50;;;1.30;;
17496;SDS011;62150;43.582;1.456;2023-04-25T06:22:42;1.53;;;1.43;;
17496;SDS011;62150;43.582;1.456;2023-04-25T06:25:09;1.60;;;1.40;;
17496;SDS011;62150;43.582;1.456;2023-04-25T06:27:37;2.10;;;1.57;;
17496;SDS011;62150;43.582;1.456;2023-04-25T06:30:05;2.37;;;1.40;;
17496;SDS011;62150;43.582;1.456;2023-04-25T06:32:34;2.17;;;1.50;;
17496;SDS011;62150;43.582;1.456;2023-04-25T06:35:02;2.40;;;1.60;;
17496;SDS011;62150;43.582;1.456;2023-04-25T06:37:30;1.87;;;1.27;;
17496;SDS011;62150;43.582;1.456;2023-04-25T06:39:57;2.27;;;1.40;;
17496;SDS011;62150;43.582;1.456;2023-04-25T06:42:25;3.37;;;1.53;;
17496;SDS011;62150;43.582;1.456;2023-04-25T06:44:52;1.60;;;1.50;;
17496;SDS011;62150;43.582;1.456;2023-04-25T06:47:20;1.80;;;1.37;;
17496;SDS011;62150;43.582;1.456;2023-04-25T06:49:49;1.67;;;1.40;;
17496;SDS011;62150;43.582;1.456;2023-04-25T06:52:17;2.03;;;1.23;;
17496;SDS011;62150;43.582;1.456;2023-04-25T06:54:44;1.63;;;1.50;;
17496;SDS011;62150;43.582;1.456;2023-04-25T06:57:12;1.77;;;1.50;;
17496;SDS011;62150;43.582;1.456;2023-04-25T06:59:40;1.63;;;1.40;;
17496;SDS011;62150;43.582;1.456;2023-04-25T07:02:07;1.87;;;1.40;;
17496;SDS011;62150;43.582;1.456;2023-04-25T07:04:35;1.40;;;1.30;;
17496;SDS011;62150;43.582;1.456;2023-04-25T07:07:04;1.50;;;1.40;;
17496;SDS011;62150;43.582;1.456;2023-04-25T07:09:32;1.40;;;1.30;;
17496;SDS011;62150;43.582;1.456;2023-04-25T07:11:59;2.60;;;1.40;;
17496;SDS011;62150;43.582;1.456;2023-04-25T07:14:27;1.60;;;1.40;;
17496;SDS011;62150;43.582;1.456;2023-04-25T07:16:55;1.50;;;1.40;;
17496;SDS011;62150;43.582;1.456;2023-04-25T07:19:22;1.67;;;1.50;;
17496;SDS011;62150;43.582;1.456;2023-04-25T07:21:51;2.07;;;1.63;;
17496;SDS011;62150;43.582;1.456;2023-04-25T07:24:20;1.40;;;1.30;;
17496;SDS011;62150;43.582;1.456;2023-04-25T07:26:48;2.13;;;1.20;;
17496;SDS011;62150;43.582;1.456;2023-04-25T07:29:15;2.87;;;1.40;;
17496;SDS011;62150;43.582;1.456;2023-04-25T07:31:43;1.43;;;1.20;;
17496;SDS011;62150;43.582;1.456;2023-04-25T07:34:10;1.10;;;1.10;;
17496;SDS011;62150;43.582;1.456;2023-04-25T07:36:38;0.90;;;0.90;;
17496;SDS011;62150;43.582;1.456;2023-04-25T07:39:05;0.93;;;0.90;;
17496;SDS011;62150;43.582;1.456;2023-04-25T07:41:35;0.77;;;0.70;;
17496;SDS011;62150;43.582;1.456;2023-04-25T07:44:03;0.63;;;0.63;;
17496;SDS011;62150;43.582;1.456;2023-04-25T07:46:30;1.07;;;0.70;;
17496;SDS011;62150;43.582;1.456;2023-04-25T07:48:58;0.80;;;0.80;;
17496;SDS011;62150;43.582;1.456;2023-04-25T07:51:25;0.68;;;0.68;;
17496;SDS011;62150;43.582;1.456;2023-04-25T07:53:53;0.80;;;0.80;;
17496;SDS011;62150;43.582;1.456;2023-04-25T07:56:20;0.80;;;0.80;;
17496;SDS011;62150;43.582;1.456;2023-04-25T07:58:49;0.80;;;0.80;;
17496;SDS011;62150;43.582;1.456;2023-04-25T08:01:16;1.47;;;0.90;;
17496;SDS011;62150;43.582;1.456;2023-04-25T08:03:46;0.87;;;0.80;;
17496;SDS011;62150;43.582;1.456;2023-04-25T08:06:14;1.13;;;0.80;;
17496;SDS011;62150;43.582;1.456;2023-04-25T08:08:41;1.30;;;1.20;;
17496;SDS011;62150;43.582;1.456;2023-04-25T08:11:09;0.90;;;0.90;;
17496;SDS011;62150;43.582;1.456;2023-04-25T08:13:36;1.20;;;1.10;;
17496;SDS011;62150;43.582;1.456;2023-04-25T08:16:05;1.80;;;0.93;;
17496;SDS011;62150;43.582;1.456;2023-04-25T08:18:33;1.17;;;0.80;;
17496;SDS011;62150;43.582;1.456;2023-04-25T08:21:00;1.37;;;0.80;;
17496;SDS011;62150;43.582;1.456;2023-04-25T08:23:28;1.07;;;1.00;;
17496;SDS011;62150;43.582;1.456;2023-04-25T08:25:55;2.83;;;0.97;;
17496;SDS011;62150;43.582;1.456;2023-04-25T08:28:23;0.80;;;0.80;;
17496;SDS011;62150;43.582;1.456;2023-04-25T08:30:50;1.57;;;1.07;;
17496;SDS011;62150;43.582;1.456;2023-04-25T08:33:19;1.27;;;1.00;;
17496;SDS011;62150;43.582;1.456;2023-04-25T08:35:47;0.87;;;0.87;;
17496;SDS011;62150;43.582;1.456;2023-04-25T08:38:14;1.10;;;1.00;;
17496;SDS011;62150;43.582;1.456;2023-04-25T08:40:43;1.00;;;0.97;;
17496;SDS011;62150;43.582;1.456;2023-04-25T08:43:12;2.00;;;1.00;;
17496;SDS011;62150;43.582;1.456;2023-04-25T08:45:41;1.27;;;1.10;;
17496;SDS011;62150;43.582;1.456;2023-04-25T08:48:10;1.00;;;1.00;;
17496;SDS011;62150;43.582;1.456;2023-04-25T08:50:40;1.17;;;0.90;;
17496;SDS011;62150;43.582;1.456;2023-04-25T08:53:12;1.10;;;1.00;;
17496;SDS011;62150;43.582;1.456;2023-04-25T08:55:43;0.80;;;0.80;;
17496;SDS011;62150;43.582;1.456;2023-04-25T08:58:12;1.10;;;1.00;;
17496;SDS011;62150;43.582;1.456;2023-04-25T09:00:40;1.50;;;1.00;;
17496;SDS011;62150;43.582;1.456;2023-04-25T09:03:08;0.90;;;0.90;;
17496;SDS011;62150;43.582;1.456;2023-04-25T09:05:36;1.50;;;1.00;;
17496;SDS011;62150;43.582;1.456;2023-04-25T09:08:05;2.47;;;0.97;;
17496;SDS011;62150;43.582;1.456;2023-04-25T09:10:33;1.27;;;0.90;;
17496;SDS011;62150;43.582;1.456;2023-04-25T09:13:01;1.20;;;1.10;;
17496;SDS011;62150;43.582;1.456;2023-04-25T09:15:31;1.00;;;1.00;;
17496;SDS011;62150;43.582;1.456;2023-04-25T09:17:59;1.67;;;1.03;;
17496;SDS011;62150;43.582;1.456;2023-04-25T09:20:26;1.00;;;0.90;;
17496;SDS011;62150;43.582;1.456;2023-04-25T09:23:02;1.20;;;0.80;;
17496;SDS011;62150;43.582;1.456;2023-04-25T09:25:36;1.60;;;1.20;;
17496;SDS011;62150;43.582;1.456;2023-04-25T09:28:05;1.00;;;1.00;;
17496;SDS011;62150;43.582;1.456;2023-04-25T09:30:33;1.03;;;1.00;;
17496;SDS011;62150;43.582;1.456;2023-04-25T09:33:05;1.87;;;0.97;;
17496;SDS011;62150;43.582;1.456;2023-04-25T09:35:37;0.80;;;0.80;;
17496;SDS011;62150;43.582;1.456;2023-04-25T09:38:12;1.03;;;0.97;;
17496;SDS011;62150;43.582;1.456;2023-04-25T09:40:45;1.00;;;1.00;;
17496;SDS011;62150;43.582;1.456;2023-04-25T09:43:18;1.00;;;1.00;;
17496;SDS011;62150;43.582;1.456;2023-04-25T09:45:47;1.17;;;1.10;;
17496;SDS011;62150;43.582;1.456;2023-04-25T09:48:17;1.20;;;1.10;;
17496;SDS011;62150;43.582;1.456;2023-04-25T09:50:45;1.30;;;1.20;;
17496;SDS011;62150;43.582;1.456;2023-04-25T09:53:29;1.77;;;1.40;;
17496;SDS011;62150;43.582;1.456;2023-04-25T09:56:00;1.30;;;1.20;;
17496;SDS011;62150;43.582;1.456;2023-04-25T09:58:30;2.07;;;1.30;;
17496;SDS011;62150;43.582;1.456;2023-04-25T10:00:59;2.53;;;1.60;;
17496;SDS011;62150;43.582;1.456;2023-04-25T10:03:29;2.20;;;1.40;;
17496;SDS011;62150;43.582;1.456;2023-04-25T10:05:59;1.60;;;1.50;;
17496;SDS011;62150;43.582;1.456;2023-04-25T10:08:29;1.50;;;1.40;;
17496;SDS011;62150;43.582;1.456;2023-04-25T10:11:01;1.70;;;1.30;;
17496;SDS011;62150;43.582;1.456;2023-04-25T10:13:30;1.47;;;1.37;;
17496;SDS011;62150;43.582;1.456;2023-04-25T10:15:59;1.53;;;1.27;;
17496;SDS011;62150;43.582;1.456;2023-04-25T10:18:28;1.50;;;1.40;;
17496;SDS011;62150;43.582;1.456;2023-04-25T10:20:57;1.50;;;1.30;;
17496;SDS011;62150;43.582;1.456;2023-04-25T10:23:26;1.30;;;1.20;;
17496;SDS011;62150;43.582;1.456;2023-04-25T10:25:56;1.17;;;1.10;;
17496;SDS011;62150;43.582;1.456;2023-04-25T10:28:26;1.37;;;1.27;;
17496;SDS011;62150;43.582;1.456;2023-04-25T10:30:57;1.47;;;1.37;;
17496;SDS011;62150;43.582;1.456;2023-04-25T10:33:29;2.00;;;1.30;;
17496;SDS011;62150;43.582;1.456;2023-04-25T10:36:08;1.23;;;1.20;;
17496;SDS011;62150;43.582;1.456;2023-04-25T10:38:37;1.27;;;1.17;;
17496;SDS011;62150;43.582;1.456;2023-04-25T10:41:05;1.23;;;1.23;;
17496;SDS011;62150;43.582;1.456;2023-04-25T10:43:36;2.07;;;1.50;;
17496;SDS011;62150;43.582;1.456;2023-04-25T10:46:17;1.10;;;1.10;;
17496;SDS011;62150;43.582;1.456;2023-04-25T10:48:49;1.70;;;1.30;;
17496;SDS011;62150;43.582;1.456;2023-04-25T10:51:19;1.33;;;1.23;;
17496;SDS011;62150;43.582;1.456;2023-04-25T10:53:56;1.50;;;1.20;;
17496;SDS011;62150;43.582;1.456;2023-04-25T10:56:25;2.00;;;1.50;;
17496;SDS011;62150;43.582;1.456;2023-04-25T10:59:04;1.60;;;1.30;;
17496;SDS011;62150;43.582;1.456;2023-04-25T11:01:37;1.47;;;1.30;;
17496;SDS011;62150;43.582;1.456;2023-04-25T11:04:05;1.67;;;1.57;;
17496;SDS011;62150;43.582;1.456;2023-04-25T11:06:46;2.50;;;1.50;;
17496;SDS011;62150;43.582;1.456;2023-04-25T11:09:28;1.67;;;1.30;;
17496;SDS011;62150;43.582;1.456;2023-04-25T11:11:56;1.60;;;1.50;;
17496;SDS011;62150;43.582;1.456;2023-04-25T11:14:26;1.43;;;1.30;;
17496;SDS011;62150;43.582;1.456;2023-04-25T11:16:54;1.40;;;1.27;;
17496;SDS011;62150;43.582;1.456;2023-04-25T11:19:22;2.63;;;1.37;;
17496;SDS011;62150;43.582;1.456;2023-04-25T11:21:50;1.57;;;1.30;;
17496;SDS011;62150;43.582;1.456;2023-04-25T11:24:24;2.63;;;1.40;;
17496;SDS011;62150;43.582;1.456;2023-04-25T11:26:53;1.73;;;1.30;;
17496;SDS011;62150;43.582;1.456;2023-04-25T11:29:21;1.17;;;1.13;;
17496;SDS011;62150;43.582;1.456;2023-04-25T11:31:50;1.30;;;1.20;;
17496;SDS011;62150;43.582;1.456;2023-04-25T11:34:18;1.67;;;1.30;;
17496;SDS011;62150;43.582;1.456;2023-04-25T11:36:47;1.57;;;1.20;;
17496;SDS011;62150;43.582;1.456;2023-04-25T11:39:15;1.40;;;1.30;;
17496;SDS011;62150;43.582;1.456;2023-04-25T11:41:42;1.30;;;1.20;;
17496;SDS011;62150;43.582;1.456;2023-04-25T11:44:10;1.77;;;1.30;;
17496;SDS011;62150;43.582;1.456;2023-04-25T11:46:37;1.50;;;1.40;;
17496;SDS011;62150;43.582;1.456;2023-04-25T11:49:06;1.30;;;1.20;;
17496;SDS011;62150;43.582;1.456;2023-04-25T11:51:37;1.50;;;1.33;;
17496;SDS011;62150;43.582;1.456;2023-04-25T11:54:05;1.30;;;1.20;;
17496;SDS011;62150;43.582;1.456;2023-04-25T11:56:33;1.43;;;1.20;;
17496;SDS011;62150;43.582;1.456;2023-04-25T11:59:02;1.33;;;1.00;;
17496;SDS011;62150;43.582;1.456;2023-04-25T12:01:30;1.23;;;1.20;;
17496;SDS011;62150;43.582;1.456;2023-04-25T12:04:09;1.90;;;1.27;;
17496;SDS011;62150;43.582;1.456;2023-04-25T12:06:39;2.20;;;1.40;;
17496;SDS011;62150;43.582;1.456;2023-04-25T12:09:08;1.83;;;1.47;;
17496;SDS011;62150;43.582;1.456;2023-04-25T12:11:43;1.43;;;1.33;;
17496;SDS011;62150;43.582;1.456;2023-04-25T12:14:11;1.40;;;1.30;;
17496;SDS011;62150;43.582;1.456;2023-04-25T12:16:47;1.47;;;1.37;;
17496;SDS011;62150;43.582;1.456;2023-04-25T12:19:19;1.40;;;1.30;;
17496;SDS011;62150;43.582;1.456;2023-04-25T12:21:47;1.87;;;1.40;;
17496;SDS011;62150;43.582;1.456;2023-04-25T12:24:15;2.07;;;1.33;;
17496;SDS011;62150;43.582;1.456;2023-04-25T12:26:48;1.50;;;1.40;;
17496;SDS011;62150;43.582;1.456;2023-04-25T12:29:17;1.63;;;1.20;;
17496;SDS011;62150;43.582;1.456;2023-04-25T12:31:46;1.65;;;1.38;;
17496;SDS011;62150;43.582;1.456;2023-04-25T12:34:14;1.97;;;1.50;;
17496;SDS011;62150;43.582;1.456;2023-04-25T12:36:43;3.10;;;1.50;;
17496;SDS011;62150;43.582;1.456;2023-04-25T12:39:14;1.55;;;1.42;;
17496;SDS011;62150;43.582;1.456;2023-04-25T12:41:42;2.73;;;1.57;;
17496;SDS011;62150;43.582;1.456;2023-04-25T12:44:10;2.40;;;1.73;;
17496;SDS011;62150;43.582;1.456;2023-04-25T12:46:38;1.83;;;1.60;;
17496;SDS011;62150;43.582;1.456;2023-04-25T12:49:07;2.22;;;1.52;;
17496;SDS011;62150;43.582;1.456;2023-04-25T12:51:35;2.03;;;1.80;;
17496;SDS011;62150;43.582;1.456;2023-04-25T12:54:07;2.50;;;1.80;;
17496;SDS011;62150;43.582;1.456;2023-04-25T12:56:48;2.95;;;1.70;;
17496;SDS011;62150;43.582;1.456;2023-04-25T12:59:16;1.80;;;1.70;;
17496;SDS011;62150;43.582;1.456;2023-04-25T13:01:45;2.37;;;1.50;;
17496;SDS011;62150;43.582;1.456;2023-04-25T13:04:12;2.90;;;1.73;;
17496;SDS011;62150;43.582;1.456;2023-04-25T13:06:40;2.38;;;1.80;;
17496;SDS011;62150;43.582;1.456;2023-04-25T13:09:09;2.03;;;1.60;;
17496;SDS011;62150;43.582;1.456;2023-04-25T13:11:37;4.73;;;1.80;;
17496;SDS011;62150;43.582;1.456;2023-04-25T13:14:05;2.35;;;1.80;;
17496;SDS011;62150;43.582;1.456;2023-04-25T13:16:33;2.30;;;1.85;;
17496;SDS011;62150;43.582;1.456;2023-04-25T13:19:00;2.00;;;1.77;;
17496;SDS011;62150;43.582;1.456;2023-04-25T13:21:29;2.73;;;1.80;;
17496;SDS011;62150;43.582;1.456;2023-04-25T13:23:57;2.10;;;1.90;;
17496;SDS011;62150;43.582;1.456;2023-04-25T13:26:26;3.47;;;2.00;;
17496;SDS011;62150;43.582;1.456;2023-04-25T13:28:54;2.97;;;1.90;;
17496;SDS011;62150;43.582;1.456;2023-04-25T13:31:22;2.65;;;1.70;;
17496;SDS011;62150;43.582;1.456;2023-04-25T13:33:49;1.63;;;1.52;;
17496;SDS011;62150;43.582;1.456;2023-04-25T13:36:17;2.72;;;1.80;;
17496;SDS011;62150;43.582;1.456;2023-04-25T13:38:44;2.03;;;1.70;;
17496;SDS011;62150;43.582;1.456;2023-04-25T13:41:14;2.37;;;1.60;;
17496;SDS011;62150;43.582;1.456;2023-04-25T13:43:45;1.70;;;1.50;;
17496;SDS011;62150;43.582;1.456;2023-04-25T13:46:13;1.80;;;1.50;;
17496;SDS011;62150;43.582;1.456;2023-04-25T13:48:41;2.55;;;1.70;;
17496;SDS011;62150;43.582;1.456;2023-04-25T13:51:13;1.83;;;1.67;;
17496;SDS011;62150;43.582;1.456;2023-04-25T13:53:42;2.03;;;1.50;;
17496;SDS011;62150;43.582;1.456;2023-04-25T13:56:10;1.75;;;1.60;;
17496;SDS011;62150;43.582;1.456;2023-04-25T13:58:38;1.50;;;1.40;;
17496;SDS011;62150;43.582;1.456;2023-04-25T14:01:07;2.30;;;1.60;;
17496;SDS011;62150;43.582;1.456;2023-04-25T14:03:34;1.50;;;1.40;;
17496;SDS011;62150;43.582;1.456;2023-04-25T14:06:02;1.83;;;1.50;;
17496;SDS011;62150;43.582;1.456;2023-04-25T14:08:30;2.05;;;1.50;;
17496;SDS011;62150;43.582;1.456;2023-04-25T14:10:57;1.73;;;1.40;;
17496;SDS011;62150;43.582;1.456;2023-04-25T14:13:25;1.48;;;1.38;;
17496;SDS011;62150;43.582;1.456;2023-04-25T14:15:53;1.40;;;1.30;;
17496;SDS011;62150;43.582;1.456;2023-04-25T14:18:22;1.50;;;1.40;;
17496;SDS011;62150;43.582;1.456;2023-04-25T14:20:49;1.40;;;1.30;;
17496;SDS011;62150;43.582;1.456;2023-04-25T14:23:17;1.38;;;1.27;;
17496;SDS011;62150;43.582;1.456;2023-04-25T14:25:44;1.30;;;1.20;;
17496;SDS011;62150;43.582;1.456;2023-04-25T14:28:12;2.05;;;1.30;;
17496;SDS011;62150;43.582;1.456;2023-04-25T14:30:40;1.77;;;1.30;;
17496;SDS011;62150;43.582;1.456;2023-04-25T14:33:07;1.30;;;1.30;;
17496;SDS011;62150;43.582;1.456;2023-04-25T14:35:36;1.90;;;1.40;;
17496;SDS011;62150;43.582;1.456;2023-04-25T14:38:04;1.50;;;1.40;;
17496;SDS011;62150;43.582;1.456;2023-04-25T14:40:32;1.93;;;1.40;;
17496;SDS011;62150;43.582;1.456;2023-04-25T14:43:00;2.90;;;1.70;;
17496;SDS011;62150;43.582;1.456;2023-04-25T14:45:27;1.58;;;1.48;;
17496;SDS011;62150;43.582;1.456;2023-04-25T14:47:55;2.05;;;1.50;;
17496;SDS011;62150;43.582;1.456;2023-04-25T14:50:23;1.90;;;1.50;;
17496;SDS011;62150;43.582;1.456;2023-04-25T14:52:51;1.83;;;1.38;;
17496;SDS011;62150;43.582;1.456;2023-04-25T14:55:23;1.50;;;1.40;;
17496;SDS011;62150;43.582;1.456;2023-04-25T14:57:51;1.52;;;1.40;;
17496;SDS011;62150;43.582;1.456;2023-04-25T15:00:20;1.35;;;1.25;;
17496;SDS011;62150;43.582;1.456;2023-04-25T15:02:48;1.40;;;1.30;;
17496;SDS011;62150;43.582;1.456;2023-04-25T15:05:15;1.17;;;1.17;;
17496;SDS011;62150;43.582;1.456;2023-04-25T15:07:43;2.25;;;1.50;;
17496;SDS011;62150;43.582;1.456;2023-04-25T15:10:14;1.67;;;1.50;;
17496;SDS011;62150;43.582;1.456;2023-04-25T15:12:42;3.10;;;1.70;;
17496;SDS011;62150;43.582;1.456;2023-04-25T15:15:10;1.93;;;1.60;;
17496;SDS011;62150;43.582;1.456;2023-04-25T15:17:38;3.85;;;1.70;;
17496;SDS011;62150;43.582;1.456;2023-04-25T15:20:07;2.15;;;1.60;;
17496;SDS011;62150;43.582;1.456;2023-04-25T15:22:36;2.80;;;1.70;;
17496;SDS011;62150;43.582;1.456;2023-04-25T15:25:05;1.88;;;1.67;;
17496;SDS011;62150;43.582;1.456;2023-04-25T15:27:35;4.22;;;1.80;;
17496;SDS011;62150;43.582;1.456;2023-04-25T15:30:06;1.90;;;1.70;;
17496;SDS011;62150;43.582;1.456;2023-04-25T15:32:36;2.40;;;1.60;;
17496;SDS011;62150;43.582;1.456;2023-04-25T15:35:04;2.53;;;1.60;;
17496;SDS011;62150;43.582;1.456;2023-04-25T15:37:32;1.87;;;1.60;;
17496;SDS011;62150;43.582;1.456;2023-04-25T15:40:01;2.57;;;1.60;;
17496;SDS011;62150;43.582;1.456;2023-04-25T15:42:35;2.23;;;1.50;;
17496;SDS011;62150;43.582;1.456;2023-04-25T15:45:03;1.60;;;1.50;;
17496;SDS011;62150;43.582;1.456;2023-04-25T15:47:33;2.25;;;1.73;;
17496;SDS011;62150;43.582;1.456;2023-04-25T15:50:02;2.70;;;1.67;;
17496;SDS011;62150;43.582;1.456;2023-04-25T15:52:31;1.60;;;1.50;;
17496;SDS011;62150;43.582;1.456;2023-04-25T15:54:59;3.80;;;1.60;;
17496;SDS011;62150;43.582;1.456;2023-04-25T15:57:28;3.10;;;1.80;;
17496;SDS011;62150;43.582;1.456;2023-04-25T15:59:57;2.53;;;1.67;;
17496;SDS011;62150;43.582;1.456;2023-04-25T16:02:25;1.60;;;1.50;;
17496;SDS011;62150;43.582;1.456;2023-04-25T16:04:54;1.40;;;1.30;;
17496;SDS011;62150;43.582;1.456;2023-04-25T16:07:22;1.65;;;1.50;;
17496;SDS011;62150;43.582;1.456;2023-04-25T16:09:50;2.03;;;1.55;;
17496;SDS011;62150;43.582;1.456;2023-04-25T16:12:17;1.50;;;1.40;;
17496;SDS011;62150;43.582;1.456;2023-04-25T16:14:45;2.07;;;1.60;;
17496;SDS011;62150;43.582;1.456;2023-04-25T16:17:14;3.00;;;1.73;;
17496;SDS011;62150;43.582;1.456;2023-04-25T16:19:41;2.47;;;1.80;;
17496;SDS011;62150;43.582;1.456;2023-04-25T16:22:08;1.70;;;1.60;;
17496;SDS011;62150;43.582;1.456;2023-04-25T16:24:40;2.73;;;1.73;;
17496;SDS011;62150;43.582;1.456;2023-04-25T16:27:07;3.20;;;1.90;;
17496;SDS011;62150;43.582;1.456;2023-04-25T16:29:35;2.87;;;1.97;;
17496;SDS011;62150;43.582;1.456;2023-04-25T16:32:03;3.95;;;2.10;;
17496;SDS011;62150;43.582;1.456;2023-04-25T16:34:32;2.87;;;1.90;;
17496;SDS011;62150;43.582;1.456;2023-04-25T16:36:59;3.20;;;1.80;;
17496;SDS011;62150;43.582;1.456;2023-04-25T16:39:27;3.47;;;2.20;;
17496;SDS011;62150;43.582;1.456;2023-04-25T16:41:54;2.67;;;1.98;;
17496;SDS011;62150;43.582;1.456;2023-04-25T16:44:22;3.45;;;2.00;;
17496;SDS011;62150;43.582;1.456;2023-04-25T16:46:49;2.93;;;2.10;;
17496;SDS011;62150;43.582;1.456;2023-04-25T16:49:17;4.07;;;2.00;;
17496;SDS011;62150;43.582;1.456;2023-04-25T16:51:46;2.70;;;1.90;;
17496;SDS011;62150;43.582;1.456;2023-04-25T16:54:13;3.17;;;2.20;;
17496;SDS011;62150;43.582;1.456;2023-04-25T16:56:41;4.40;;;2.00;;
17496;SDS011;62150;43.582;1.456;2023-04-25T16:59:08;4.83;;;2.30;;
17496;SDS011;62150;43.582;1.456;2023-04-25T17:01:36;3.90;;;2.10;;
17496;SDS011;62150;43.582;1.456;2023-04-25T17:04:03;2.93;;;2.00;;
17496;SDS011;62150;43.582;1.456;2023-04-25T17:06:31;5.17;;;2.70;;
17496;SDS011;62150;43.582;1.456;2023-04-25T17:09:00;4.87;;;2.77;;
17496;SDS011;62150;43.582;1.456;2023-04-25T17:11:28;5.10;;;2.73;;
17496;SDS011;62150;43.582;1.456;2023-04-25T17:13:56;6.73;;;2.90;;
17496;SDS011;62150;43.582;1.456;2023-04-25T17:16:28;6.37;;;3.07;;
17496;SDS011;62150;43.582;1.456;2023-04-25T17:19:01;5.77;;;2.87;;
17496;SDS011;62150;43.582;1.456;2023-04-25T17:21:29;5.60;;;2.72;;
17496;SDS011;62150;43.582;1.456;2023-04-25T17:23:57;4.10;;;2.60;;
17496;SDS011;62150;43.582;1.456;2023-04-25T17:26:26;3.67;;;2.40;;
17496;SDS011;62150;43.582;1.456;2023-04-25T17:28:53;3.77;;;2.47;;
17496;SDS011;62150;43.582;1.456;2023-04-25T17:31:21;3.77;;;2.40;;
17496;SDS011;62150;43.582;1.456;2023-04-25T17:33:49;4.18;;;2.50;;
17496;SDS011;62150;43.582;1.456;2023-04-25T17:36:16;3.37;;;2.40;;
17496;SDS011;62150;43.582;1.456;2023-04-25T17:38:44;4.47;;;2.40;;
17496;SDS011;62150;43.582;1.456;2023-04-25T17:41:11;4.97;;;2.58;;
17496;SDS011;62150;43.582;1.456;2023-04-25T17:43:40;5.18;;;2.85;;
17496;SDS011;62150;43.582;1.456;2023-04-25T17:46:08;3.70;;;2.40;;
17496;SDS011;62150;43.582;1.456;2023-04-25T17:48:35;3.30;;;1.90;;
17496;SDS011;62150;43.582;1.456;2023-04-25T17:51:03;2.13;;;1.50;;
17496;SDS011;62150;43.582;1.456;2023-04-25T17:53:31;2.53;;;1.77;;
17496;SDS011;62150;43.582;1.456;2023-04-25T17:55:59;3.13;;;1.55;;
17496;SDS011;62150;43.582;1.456;2023-04-25T17:58:26;2.70;;;1.60;;
17496;SDS011;62150;43.582;1.456;2023-04-25T18:00:55;2.40;;;1.57;;
17496;SDS011;62150;43.582;1.456;2023-04-25T18:03:22;3.33;;;1.80;;
17496;SDS011;62150;43.582;1.456;2023-04-25T18:05:50;3.60;;;1.90;;
17496;SDS011;62150;43.582;1.456;2023-04-25T18:08:17;2.57;;;1.77;;
17496;SDS011;62150;43.582;1.456;2023-04-25T18:10:46;4.27;;;2.40;;
17496;SDS011;62150;43.582;1.456;2023-04-25T18:13:15;3.10;;;2.10;;
17496;SDS011;62150;43.582;1.456;2023-04-25T18:15:42;2.27;;;1.90;;
17496;SDS011;62150;43.582;1.456;2023-04-25T18:18:11;2.63;;;1.70;;
17496;SDS011;62150;43.582;1.456;2023-04-25T18:20:44;2.17;;;1.73;;
17496;SDS011;62150;43.582;1.456;2023-04-25T18:23:12;2.80;;;1.90;;
17496;SDS011;62150;43.582;1.456;2023-04-25T18:25:39;3.57;;;2.13;;
17496;SDS011;62150;43.582;1.456;2023-04-25T18:28:07;5.37;;;2.33;;
17496;SDS011;62150;43.582;1.456;2023-04-25T18:30:34;4.00;;;2.33;;
17496;SDS011;62150;43.582;1.456;2023-04-25T18:33:02;6.43;;;3.57;;
17496;SDS011;62150;43.582;1.456;2023-04-25T18:35:31;4.53;;;2.60;;
17496;SDS011;62150;43.582;1.456;2023-04-25T18:37:59;4.10;;;2.27;;
17496;SDS011;62150;43.582;1.456;2023-04-25T18:40:26;5.40;;;2.60;;
17496;SDS011;62150;43.582;1.456;2023-04-25T18:42:54;4.03;;;2.23;;
17496;SDS011;62150;43.582;1.456;2023-04-25T18:45:21;3.80;;;2.20;;
17496;SDS011;62150;43.582;1.456;2023-04-25T18:47:49;3.50;;;2.10;;
17496;SDS011;62150;43.582;1.456;2023-04-25T18:50:17;3.43;;;2.00;;
17496;SDS011;62150;43.582;1.456;2023-04-25T18:52:46;3.23;;;1.80;;
17496;SDS011;62150;43.582;1.456;2023-04-25T18:55:13;3.07;;;2.00;;
17496;SDS011;62150;43.582;1.456;2023-04-25T18:57:41;2.57;;;1.90;;
17496;SDS011;62150;43.582;1.456;2023-04-25T19:00:09;3.60;;;1.80;;
17496;SDS011;62150;43.582;1.456;2023-04-25T19:02:37;4.33;;;1.90;;
17496;SDS011;62150;43.582;1.456;2023-04-25T19:05:04;4.20;;;2.10;;
17496;SDS011;62150;43.582;1.456;2023-04-25T19:07:34;7.23;;;3.03;;
17496;SDS011;62150;43.582;1.456;2023-04-25T19:10:03;5.20;;;2.60;;
17496;SDS011;62150;43.582;1.456;2023-04-25T19:12:32;3.87;;;2.43;;
17496;SDS011;62150;43.582;1.456;2023-04-25T19:14:59;5.43;;;2.60;;
17496;SDS011;62150;43.582;1.456;2023-04-25T19:17:27;4.17;;;2.23;;
17496;SDS011;62150;43.582;1.456;2023-04-25T19:19:55;4.33;;;2.60;;
17496;SDS011;62150;43.582;1.456;2023-04-25T19:22:22;4.30;;;2.30;;
17496;SDS011;62150;43.582;1.456;2023-04-25T19:24:50;4.30;;;2.47;;
17496;SDS011;62150;43.582;1.456;2023-04-25T19:27:19;4.50;;;2.40;;